Phoenix, Arizona
Traffic Map
Current Weather Conditions
Phoenix, Arizona
Clear
Clear
30°
Feels Like: 30°
Wind Chill: 30° Ceiling: Unl
Heat Index: 30° Visibility: 10mi
Dew Point: -5° Wind: 6mph
Humidity: 10% Direction: 270° (W)
Pressure: 29.79in Gusts: 0mph
Raw Report DataKPHX 180551Z 27005KT 10SM CLR 30/M05 A2979 RMK AO2 SLP067 T03001050 10378 20300 51017 $
Traffic Incident Summary
Active as of:
Severity:
Category:
InformationThere was an issue retrieving the traffic information for this location. Please try a different location or try again shortly.
Advertisements